Time;durP1;ratioP1;P1;durP2;ratioP2;P2;SDS_P1;SDS_P2;PMS_P1;PMS_P2;Temp;Humidity;BMP_temperature;BMP_pressure;BME280_temperature;BME280_humidity;BME280_pressure;Samples;Min_cycle;Max_cycle;Signal;HPM_P1;HPM_P2
2023/06/12 00:02:09;;;;;;;12.88;2.03;;;21.00;74.40;;;;;;4426177;32;20097;-76
2023/06/12 00:04:35;;;;;;;0.57;0.57;;;21.00;74.90;;;;;;4429421;32;20832;-79
2023/06/12 00:07:01;;;;;;;0.40;0.40;;;20.90;75.40;;;;;;4426917;32;20133;-79
2023/06/12 00:09:28;;;;;;;1.98;1.12;;;20.80;75.50;;;;;;4428066;32;20100;-78
2023/06/12 00:11:54;;;;;;;0.40;0.40;;;20.70;76.70;;;;;;4428057;32;20077;-78
2023/06/12 00:14:20;;;;;;;0.40;0.40;;;20.60;76.70;;;;;;4427632;32;20100;-80
2023/06/12 00:16:45;;;;;;;0.60;0.60;;;20.60;77.30;;;;;;4426268;32;20074;-80
2023/06/12 00:19:11;;;;;;;1.48;1.00;;;20.50;77.40;;;;;;4423188;32;20267;-77
2023/06/12 00:21:36;;;;;;;0.35;0.35;;;20.40;78.20;;;;;;4418937;32;20081;-78
2023/06/12 00:24:08;;;;;;;0.35;0.35;;;20.40;77.00;;;;;;4424450;32;20494;-80
2023/06/12 00:26:34;;;;;;;0.40;0.40;;;20.30;77.70;;;;;;4426587;32;20088;-78
2023/06/12 00:29:00;;;;;;;2.28;0.68;;;20.30;77.30;;;;;;4427205;32;20073;-78
2023/06/12 00:31:25;;;;;;;1.15;0.68;;;20.20;78.30;;;;;;4427093;32;20579;-79
2023/06/12 00:33:51;;;;;;;0.90;0.77;;;20.10;78.40;;;;;;4429133;32;20101;-79
2023/06/12 00:36:16;;;;;;;0.70;0.70;;;20.00;78.50;;;;;;4425654;32;20088;-79
2023/06/12 00:38:42;;;;;;;0.45;0.40;;;20.00;78.40;;;;;;4424385;32;20106;-80
2023/06/12 00:41:07;;;;;;;0.40;0.40;;;19.90;79.10;;;;;;4426699;32;20078;-78
2023/06/12 00:43:33;;;;;;;0.43;0.43;;;20.00;78.20;;;;;;4430741;32;20074;-78
2023/06/12 00:45:59;;;;;;;0.80;0.80;;;19.90;78.20;;;;;;4426868;32;20499;-78
2023/06/12 00:48:25;;;;;;;0.35;0.35;;;19.90;78.60;;;;;;4429479;32;20068;-80
2023/06/12 00:50:52;;;;;;;0.30;0.30;;;19.80;78.50;;;;;;4428607;32;20082;-77
2023/06/12 00:53:18;;;;;;;0.80;0.60;;;19.80;78.40;;;;;;4429104;32;20101;-77
2023/06/12 00:55:44;;;;;;;0.55;0.55;;;19.80;78.10;;;;;;4427558;32;20066;-78
2023/06/12 00:58:10;;;;;;;0.22;0.22;;;19.80;77.90;;;;;;4424176;32;20082;-79
2023/06/12 01:00:38;;;;;;;0.50;0.50;;;19.80;78.30;;;;;;4428878;32;20121;-76
2023/06/12 01:03:07;;;;;;;6.82;1.45;;;19.70;78.70;;;;;;4427105;32;20529;-79
2023/06/12 01:05:37;;;;;;;0.40;0.40;;;19.60;78.40;;;;;;4426788;32;20077;-76
2023/06/12 01:08:16;;;;;;;0.55;0.45;;;19.50;78.60;;;;;;4426561;32;20114;-79
2023/06/12 01:10:50;;;;;;;0.50;0.50;;;19.50;78.60;;;;;;4426870;32;20102;-79
2023/06/12 01:13:17;;;;;;;0.40;0.40;;;19.50;78.50;;;;;;4427836;32;20538;-78
2023/06/12 01:15:43;;;;;;;0.47;0.47;;;19.40;78.40;;;;;;4428006;32;20521;-80
2023/06/12 01:18:09;;;;;;;0.43;0.43;;;19.40;78.80;;;;;;4425456;32;20165;-79
2023/06/12 01:20:35;;;;;;;0.70;0.70;;;19.40;78.90;;;;;;4426207;32;20060;-80
2023/06/12 01:23:15;;;;;;;0.47;0.47;;;19.40;79.10;;;;;;4427715;32;20069;-78
2023/06/12 01:26:13;;;;;;;0.20;0.20;;;19.40;79.60;;;;;;4428357;32;20117;-79
2023/06/12 01:29:07;;;;;;;1.33;0.70;;;19.30;79.20;;;;;;4416925;32;20130;-80
2023/06/12 01:31:43;;;;;;;1.02;0.45;;;19.30;80.00;;;;;;4418274;32;20088;-78
2023/06/12 01:34:15;;;;;;;0.30;0.30;;;19.30;80.50;;;;;;4427230;32;20132;-77
2023/06/12 01:36:44;;;;;;;0.40;0.40;;;19.20;80.60;;;;;;4425820;32;20113;-77
2023/06/12 01:39:12;;;;;;;0.52;0.52;;;19.20;81.20;;;;;;4426617;32;20069;-76
2023/06/12 01:41:38;;;;;;;0.93;0.80;;;19.10;81.20;;;;;;4427833;32;20081;-77
2023/06/12 01:44:09;;;;;;;3.75;1.27;;;19.10;81.50;;;;;;4431000;32;20073;-79
2023/06/12 01:46:35;;;;;;;0.40;0.40;;;19.10;81.30;;;;;;4423803;32;20090;-79
2023/06/12 01:49:03;;;;;;;0.85;0.50;;;19.10;81.40;;;;;;4425355;32;20070;-77
2023/06/12 01:51:28;;;;;;;0.40;0.40;;;19.00;81.40;;;;;;4422446;32;20718;-80
2023/06/12 01:53:53;;;;;;;0.32;0.32;;;18.90;81.50;;;;;;4422667;32;20078;-78
2023/06/12 01:56:24;;;;;;;1.33;0.95;;;18.80;82.00;;;;;;4422147;32;20244;-79
2023/06/12 01:58:50;;;;;;;0.60;0.60;;;18.80;81.80;;;;;;4422572;32;20101;-79
2023/06/12 02:01:15;;;;;;;0.30;0.30;;;18.70;82.10;;;;;;4420974;32;20438;-80
2023/06/12 02:03:41;;;;;;;0.37;0.37;;;18.70;81.40;;;;;;4425295;32;20124;-79
2023/06/12 02:06:07;;;;;;;1.40;0.55;;;18.70;81.40;;;;;;4424601;32;20148;-79
2023/06/12 02:08:32;;;;;;;0.40;0.40;;;18.70;81.50;;;;;;4424426;32;20544;-78
2023/06/12 02:10:58;;;;;;;0.47;0.47;;;18.70;81.70;;;;;;4423591;32;20085;-78
2023/06/12 02:13:24;;;;;;;0.98;0.90;;;18.60;80.90;;;;;;4424414;32;20517;-79
2023/06/12 02:15:50;;;;;;;4.10;0.62;;;18.60;81.00;;;;;;4423337;32;20074;-78
2023/06/12 02:18:15;;;;;;;0.43;0.43;;;18.60;80.80;;;;;;4423378;32;20120;-79
2023/06/12 02:20:42;;;;;;;1.70;0.47;;;18.60;81.20;;;;;;4422918;32;20085;-78
2023/06/12 02:23:07;;;;;;;0.60;0.60;;;18.50;80.40;;;;;;4425868;32;20074;-78
2023/06/12 02:25:32;;;;;;;1.65;1.10;;;18.50;80.40;;;;;;4424047;32;20124;-79
2023/06/12 02:27:58;;;;;;;1.20;0.47;;;18.50;81.00;;;;;;4424069;32;20078;-77
2023/06/12 02:30:23;;;;;;;0.30;0.30;;;18.50;81.00;;;;;;4423850;32;20591;-77
2023/06/12 02:32:49;;;;;;;0.50;0.50;;;18.40;80.00;;;;;;4425080;32;20065;-77
2023/06/12 02:35:15;;;;;;;0.40;0.40;;;18.40;80.50;;;;;;4423434;32;20089;-78
2023/06/12 02:37:40;;;;;;;2.47;0.80;;;18.30;80.80;;;;;;4422904;32;20413;-77
2023/06/12 02:40:06;;;;;;;0.57;0.55;;;18.40;80.40;;;;;;4426153;32;20085;-78
2023/06/12 02:42:32;;;;;;;0.73;0.73;;;18.30;80.40;;;;;;4424563;32;20082;-76
2023/06/12 02:44:57;;;;;;;0.40;0.40;;;18.30;80.40;;;;;;4423998;32;20089;-77
2023/06/12 02:47:23;;;;;;;2.30;0.50;;;18.20;80.20;;;;;;4421152;32;20116;-78
2023/06/12 02:49:48;;;;;;;0.95;0.93;;;18.20;80.90;;;;;;4427420;32;20093;-79
2023/06/12 02:52:14;;;;;;;0.50;0.50;;;18.20;79.60;;;;;;4428842;32;20069;-78
2023/06/12 02:54:39;;;;;;;0.30;0.30;;;18.20;79.20;;;;;;4430874;32;20593;-79
2023/06/12 02:57:05;;;;;;;0.50;0.50;;;18.20;78.80;;;;;;4429353;32;20137;-79
2023/06/12 02:59:31;;;;;;;0.40;0.40;;;18.10;78.90;;;;;;4429426;32;20418;-77
2023/06/12 03:01:56;;;;;;;0.47;0.40;;;18.10;79.10;;;;;;4429504;32;20125;-78
2023/06/12 03:04:23;;;;;;;2.05;0.90;;;18.00;79.00;;;;;;4428736;32;20102;-77
2023/06/12 03:06:52;;;;;;;0.40;0.40;;;18.00;79.10;;;;;;4429636;32;20147;-77
2023/06/12 03:09:18;;;;;;;0.45;0.45;;;17.90;79.50;;;;;;4430432;32;20565;-80
2023/06/12 03:11:44;;;;;;;4.90;0.73;;;17.90;79.50;;;;;;4426527;32;20395;-79
2023/06/12 03:14:12;;;;;;;0.30;0.30;;;17.90;79.40;;;;;;4427673;32;20101;-78
2023/06/12 03:16:38;;;;;;;0.90;0.65;;;17.90;79.60;;;;;;4427134;32;20077;-80
2023/06/12 03:19:03;;;;;;;0.45;0.43;;;17.80;79.70;;;;;;4429106;32;20089;-79
2023/06/12 03:21:28;;;;;;;0.20;0.20;;;17.80;80.10;;;;;;4429706;32;20069;-80
2023/06/12 03:23:54;;;;;;;0.50;0.50;;;17.80;79.90;;;;;;4430646;32;20073;-79
2023/06/12 03:26:20;;;;;;;0.57;0.57;;;17.80;80.30;;;;;;4426356;32;20088;-77
2023/06/12 03:28:46;;;;;;;0.50;0.50;;;17.70;80.20;;;;;;4425966;32;20995;-79
2023/06/12 03:31:12;;;;;;;3.30;0.50;;;17.60;80.60;;;;;;4429944;32;20579;-79
2023/06/12 03:33:37;;;;;;;0.73;0.57;;;17.50;80.90;;;;;;4425197;32;20120;-79
2023/06/12 03:36:03;;;;;;;0.20;0.20;;;17.60;80.70;;;;;;4428392;32;20100;-78
2023/06/12 03:38:28;;;;;;;0.22;0.22;;;17.50;80.80;;;;;;4426572;32;20139;-75
2023/06/12 03:40:54;;;;;;;0.50;0.50;;;17.50;81.30;;;;;;4429089;32;20106;-79
2023/06/12 03:43:19;;;;;;;0.40;0.40;;;17.50;81.00;;;;;;4428866;32;20105;-76
2023/06/12 03:45:45;;;;;;;1.20;0.88;;;17.50;81.40;;;;;;4429364;32;20094;-77
2023/06/12 03:48:10;;;;;;;0.40;0.40;;;17.50;81.30;;;;;;4427691;32;20090;-78
2023/06/12 03:50:36;;;;;;;1.95;0.85;;;17.60;81.40;;;;;;4429648;32;20130;-76
2023/06/12 03:53:02;;;;;;;0.40;0.40;;;17.60;81.20;;;;;;4428306;32;20069;-79
2023/06/12 03:55:28;;;;;;;0.47;0.47;;;17.50;81.00;;;;;;4429426;32;20081;-79
2023/06/12 03:57:54;;;;;;;2.00;1.23;;;17.50;81.20;;;;;;4427921;32;20105;-79
2023/06/12 04:00:21;;;;;;;1.77;0.75;;;17.50;81.30;;;;;;4428589;32;20093;-79
2023/06/12 04:02:47;;;;;;;1.20;0.93;;;17.60;81.30;;;;;;4424911;32;20110;-80
2023/06/12 04:05:12;;;;;;;0.57;0.57;;;17.60;81.20;;;;;;4427565;32;20065;-79
2023/06/12 04:07:38;;;;;;;0.60;0.60;;;17.60;81.40;;;;;;4425645;32;20607;-79
2023/06/12 04:10:04;;;;;;;0.50;0.50;;;17.60;80.60;;;;;;4428693;32;20086;-79
2023/06/12 04:12:30;;;;;;;0.43;0.43;;;17.60;81.20;;;;;;4426915;32;20150;-78
2023/06/12 04:14:56;;;;;;;0.40;0.40;;;17.60;80.80;;;;;;4427730;32;20640;-79
2023/06/12 04:17:21;;;;;;;1.85;1.05;;;17.60;81.40;;;;;;4427386;32;20086;-78
2023/06/12 04:19:49;;;;;;;0.30;0.30;;;17.60;81.00;;;;;;4426187;32;20073;-80
2023/06/12 04:22:15;;;;;;;0.30;0.30;;;17.70;80.40;;;;;;4419563;32;20153;-79
2023/06/12 04:24:42;;;;;;;0.60;0.60;;;17.60;80.40;;;;;;4424520;32;20108;-78
2023/06/12 04:27:09;;;;;;;3.50;1.10;;;17.70;80.30;;;;;;4426211;32;20116;-79
2023/06/12 04:29:37;;;;;;;0.20;0.20;;;17.70;80.60;;;;;;4424371;32;20727;-78
2023/06/12 04:32:05;;;;;;;1.35;0.80;;;17.70;80.90;;;;;;4428080;32;20113;-76
2023/06/12 04:34:30;;;;;;;0.40;0.40;;;17.80;80.20;;;;;;4424239;32;20069;-78
2023/06/12 04:36:56;;;;;;;0.40;0.40;;;17.90;79.90;;;;;;4423411;32;20097;-79
2023/06/12 04:39:23;;;;;;;1.05;0.55;;;17.90;79.90;;;;;;4425291;32;20094;-80
2023/06/12 04:41:51;;;;;;;0.40;0.40;;;17.90;79.20;;;;;;4426964;32;20077;-79
2023/06/12 04:44:17;;;;;;;0.40;0.40;;;17.90;79.00;;;;;;4424231;32;20088;-77
2023/06/12 04:46:43;;;;;;;3.30;1.15;;;18.00;79.30;;;;;;4423291;32;20078;-77
2023/06/12 04:49:08;;;;;;;0.30;0.30;;;18.00;80.00;;;;;;4421339;32;20418;-80
2023/06/12 04:51:35;;;;;;;0.45;0.45;;;18.10;79.40;;;;;;4423897;32;20097;-79
2023/06/12 04:54:01;;;;;;;0.52;0.52;;;18.00;79.00;;;;;;4423028;32;20081;-79
2023/06/12 04:56:27;;;;;;;1.48;0.80;;;18.10;79.60;;;;;;4422855;32;20088;-78
2023/06/12 04:58:53;;;;;;;1.02;0.60;;;18.10;79.80;;;;;;4422824;32;20074;-78
2023/06/12 05:01:19;;;;;;;0.68;0.60;;;18.30;78.90;;;;;;4419440;32;20081;-78
2023/06/12 05:03:46;;;;;;;0.47;0.47;;;18.30;78.30;;;;;;4421196;32;20106;-78
2023/06/12 05:06:11;;;;;;;0.88;0.80;;;18.30;78.00;;;;;;4426290;32;20113;-78
2023/06/12 05:08:38;;;;;;;3.97;1.73;;;18.30;79.00;;;;;;4420294;32;21297;-79
2023/06/12 05:11:03;;;;;;;0.30;0.30;;;18.40;78.60;;;;;;4427088;32;20077;-79
2023/06/12 05:13:30;;;;;;;0.20;0.20;;;18.40;78.60;;;;;;4421213;32;20209;-78
2023/06/12 05:15:55;;;;;;;0.40;0.40;;;18.40;78.30;;;;;;4417329;32;20082;-77
2023/06/12 05:18:21;;;;;;;0.35;0.35;;;18.50;78.30;;;;;;4408697;32;20544;-79
2023/06/12 05:20:46;;;;;;;2.28;0.60;;;18.60;78.50;;;;;;4420284;32;20479;-78
2023/06/12 05:23:12;;;;;;;2.10;1.30;;;18.60;78.40;;;;;;4421115;32;20081;-77
2023/06/12 05:25:37;;;;;;;0.35;0.35;;;18.60;79.10;;;;;;4420179;32;20073;-80
2023/06/12 05:28:04;;;;;;;0.43;0.43;;;18.70;78.10;;;;;;4410774;32;20188;-79
2023/06/12 05:30:30;;;;;;;2.83;1.12;;;18.80;78.70;;;;;;4410059;32;20853;-76
2023/06/12 05:32:58;;;;;;;0.30;0.30;;;18.90;78.00;;;;;;4403850;32;20216;-76
2023/06/12 05:35:24;;;;;;;0.30;0.30;;;19.00;77.60;;;;;;4411976;32;20069;-79
2023/06/12 05:37:50;;;;;;;0.35;0.35;;;19.00;77.50;;;;;;4414561;32;20314;-78
2023/06/12 05:40:17;;;;;;;0.40;0.40;;;19.10;77.30;;;;;;4419467;32;20525;-78
2023/06/12 05:42:44;;;;;;;0.50;0.50;;;19.20;77.10;;;;;;4414412;32;20137;-77
2023/06/12 05:45:09;;;;;;;0.35;0.35;;;19.20;76.60;;;;;;4410716;32;21025;-78
2023/06/12 05:47:36;;;;;;;0.32;0.32;;;19.20;77.10;;;;;;4408363;32;20089;-78
2023/06/12 05:50:02;;;;;;;0.32;0.32;;;19.30;77.70;;;;;;4410268;32;20116;-74
2023/06/12 05:52:28;;;;;;;0.98;0.60;;;19.30;76.20;;;;;;4414310;32;20097;-78
2023/06/12 05:54:53;;;;;;;0.77;0.70;;;19.40;76.90;;;;;;4414272;32;20078;-78
2023/06/12 05:57:19;;;;;;;0.43;0.43;;;19.50;77.90;;;;;;4410663;32;20686;-76
2023/06/12 05:59:44;;;;;;;0.55;0.55;;;19.60;77.10;;;;;;4405464;32;20170;-77
2023/06/12 06:02:10;;;;;;;0.43;0.43;;;19.60;76.90;;;;;;4393949;32;20173;-77
2023/06/12 06:04:36;;;;;;;0.30;0.30;;;19.70;76.40;;;;;;4404909;32;20486;-76
2023/06/12 06:07:01;;;;;;;0.40;0.40;;;19.70;76.80;;;;;;4402377;32;20580;-76
2023/06/12 06:09:27;;;;;;;29.55;1.02;;;19.80;77.40;;;;;;4403159;32;20098;-79
2023/06/12 06:11:53;;;;;;;0.37;0.25;;;19.90;77.70;;;;;;4408190;32;20176;-77
2023/06/12 06:14:19;;;;;;;1.10;0.60;;;20.00;77.60;;;;;;4404384;32;20088;-77
2023/06/12 06:16:45;;;;;;;0.40;0.40;;;20.10;76.40;;;;;;4404162;32;20102;-78
2023/06/12 06:19:11;;;;;;;0.30;0.30;;;20.20;76.80;;;;;;4404213;32;20066;-77
2023/06/12 06:21:36;;;;;;;0.95;0.70;;;20.30;76.10;;;;;;4404864;32;20102;-76
2023/06/12 06:24:02;;;;;;;1.10;0.45;;;20.30;75.90;;;;;;4401312;32;21039;-78
2023/06/12 06:26:27;;;;;;;0.68;0.60;;;20.30;76.30;;;;;;4407023;32;20085;-77
2023/06/12 06:28:53;;;;;;;0.37;0.37;;;20.40;76.40;;;;;;4407782;32;21870;-76
2023/06/12 06:31:19;;;;;;;0.40;0.40;;;20.40;76.20;;;;;;4404085;32;20166;-78
2023/06/12 06:33:45;;;;;;;0.75;0.60;;;20.50;75.70;;;;;;4398028;32;20085;-76
2023/06/12 06:36:10;;;;;;;0.20;0.20;;;20.60;75.40;;;;;;4406920;32;20425;-77
2023/06/12 06:38:36;;;;;;;0.77;0.40;;;20.70;75.10;;;;;;4412574;32;20093;-77
2023/06/12 06:41:02;;;;;;;0.88;0.60;;;20.70;74.50;;;;;;4421328;32;20077;-78
2023/06/12 06:43:27;;;;;;;0.50;0.50;;;20.80;75.20;;;;;;4457635;26;20175;-65
2023/06/12 06:45:53;;;;;;;2.42;1.12;;;20.80;74.70;;;;;;4409926;32;20132;-66
2023/06/12 06:48:20;;;;;;;1.25;0.62;;;20.90;74.90;;;;;;4403604;32;20077;-65
2023/06/12 06:50:47;;;;;;;0.40;0.40;;;21.00;75.60;;;;;;4407934;32;20093;-65
2023/06/12 06:53:12;;;;;;;0.60;0.60;;;21.00;74.80;;;;;;4404581;32;20077;-66
2023/06/12 06:55:42;;;;;;;0.57;0.55;;;21.10;74.60;;;;;;4403177;32;20098;-66
2023/06/12 06:58:07;;;;;;;0.30;0.30;;;21.10;74.60;;;;;;4402909;32;20093;-66
2023/06/12 07:00:35;;;;;;;0.30;0.30;;;21.30;75.00;;;;;;4404781;32;20088;-67
2023/06/12 07:03:08;;;;;;;0.40;0.40;;;21.40;74.30;;;;;;4389506;32;20085;-66
2023/06/12 07:05:33;;;;;;;0.30;0.30;;;21.50;74.40;;;;;;4404086;32;20093;-67
2023/06/12 07:07:59;;;;;;;0.40;0.40;;;21.60;74.00;;;;;;4400456;32;20720;-66
2023/06/12 07:10:24;;;;;;;0.43;0.43;;;21.70;74.00;;;;;;4408750;32;20885;-66
2023/06/12 07:12:56;;;;;;;0.88;0.62;;;21.80;73.40;;;;;;4404469;32;20094;-67
2023/06/12 07:15:25;;;;;;;0.45;0.45;;;21.90;73.40;;;;;;4401282;32;20108;-66
2023/06/12 07:17:52;;;;;;;0.40;0.40;;;22.00;72.70;;;;;;4403059;32;20132;-66
2023/06/12 07:20:18;;;;;;;0.40;0.40;;;22.20;73.20;;;;;;4400877;32;20619;-66
2023/06/12 07:22:51;;;;;;;0.70;0.60;;;22.30;72.40;;;;;;4405339;32;20117;-66
2023/06/12 07:25:16;;;;;;;6.20;0.73;;;22.30;72.10;;;;;;4405710;32;20089;-66
2023/06/12 07:27:42;;;;;;;1.15;0.28;;;22.40;72.80;;;;;;4407016;32;20089;-66
2023/06/12 07:30:08;;;;;;;1.17;0.60;;;22.50;71.60;;;;;;4399943;32;20084;-66
2023/06/12 07:32:34;;;;;;;0.65;0.65;;;22.70;71.20;;;;;;4398827;32;20077;-67
2023/06/12 07:34:59;;;;;;;0.60;0.60;;;22.90;69.80;;;;;;4396492;32;20188;-67
2023/06/12 07:37:25;;;;;;;0.30;0.30;;;22.90;68.80;;;;;;4382714;32;20082;-67
2023/06/12 07:39:51;;;;;;;0.55;0.52;;;23.10;69.30;;;;;;4393066;32;20136;-66
2023/06/12 07:42:16;;;;;;;0.22;0.22;;;23.20;68.30;;;;;;4389179;32;20093;-67
2023/06/12 07:44:42;;;;;;;0.30;0.30;;;23.30;66.70;;;;;;4385233;32;20180;-66
2023/06/12 07:47:08;;;;;;;0.90;0.52;;;23.30;67.00;;;;;;4397223;32;20077;-68
2023/06/12 07:49:34;;;;;;;0.50;0.50;;;23.40;67.60;;;;;;4402891;32;20241;-66
2023/06/12 07:52:01;;;;;;;0.40;0.40;;;23.50;66.90;;;;;;4394732;32;20177;-68
2023/06/12 07:54:26;;;;;;;0.57;0.57;;;23.50;65.80;;;;;;4387410;32;20114;-67
2023/06/12 07:56:53;;;;;;;0.20;0.20;;;23.50;67.30;;;;;;4392897;32;20490;-66
2023/06/12 07:59:18;;;;;;;0.40;0.40;;;23.70;66.60;;;;;;4390123;32;20508;-67
2023/06/12 08:01:46;;;;;;;0.80;0.60;;;23.80;65.90;;;;;;4391195;32;20248;-67
2023/06/12 08:04:12;;;;;;;0.30;0.30;;;24.10;65.10;;;;;;4388028;32;20754;-67
2023/06/12 08:06:39;;;;;;;0.45;0.45;;;24.10;62.20;;;;;;4391059;32;20121;-68
2023/06/12 08:09:05;;;;;;;0.30;0.30;;;24.10;63.10;;;;;;4396317;32;20907;-67
2023/06/12 08:11:31;;;;;;;1.62;0.70;;;24.30;60.90;;;;;;4390477;32;20104;-67
2023/06/12 08:13:57;;;;;;;0.35;0.35;;;24.50;61.70;;;;;;4386932;32;20433;-67
2023/06/12 08:16:24;;;;;;;3.53;0.98;;;24.60;62.00;;;;;;4377500;32;20590;-67
2023/06/12 08:18:50;;;;;;;0.32;0.32;;;24.80;61.50;;;;;;4392944;32;20085;-68
2023/06/12 08:21:16;;;;;;;0.50;0.50;;;24.80;61.20;;;;;;4390262;32;20069;-67
2023/06/12 08:23:41;;;;;;;0.40;0.40;;;24.80;59.80;;;;;;4387673;32;20153;-67
2023/06/12 08:26:08;;;;;;;0.20;0.20;;;24.90;59.70;;;;;;4391261;32;20447;-67
2023/06/12 08:28:38;;;;;;;0.47;0.47;;;25.00;59.10;;;;;;4393769;32;20775;-67
2023/06/12 08:31:04;;;;;;;14.27;2.42;;;25.00;59.30;;;;;;4395227;32;20073;-68
2023/06/12 08:33:30;;;;;;;2.55;0.85;;;25.10;59.40;;;;;;4383753;32;20116;-67
2023/06/12 08:35:58;;;;;;;0.30;0.30;;;25.10;58.40;;;;;;4397528;32;20107;-68
2023/06/12 08:38:23;;;;;;;0.43;0.43;;;25.20;58.90;;;;;;4394747;32;20106;-68
2023/06/12 08:40:53;;;;;;;0.20;0.20;;;25.20;58.90;;;;;;4386151;32;20114;-67
2023/06/12 08:43:19;;;;;;;0.20;0.20;;;25.10;59.50;;;;;;4394741;32;20120;-67
2023/06/12 08:45:47;;;;;;;0.20;0.20;;;25.30;59.80;;;;;;4390808;32;20105;-65
2023/06/12 08:48:17;;;;;;;0.20;0.20;;;25.40;58.80;;;;;;4391022;32;20097;-67
2023/06/12 08:50:44;;;;;;;0.47;0.47;;;25.40;59.20;;;;;;4395979;32;20103;-66
2023/06/12 08:53:10;;;;;;;1.02;0.52;;;25.50;58.60;;;;;;4398329;32;20078;-66
2023/06/12 08:55:39;;;;;;;0.25;0.25;;;25.40;58.30;;;;;;4400971;32;20667;-65
2023/06/12 08:58:07;;;;;;;0.40;0.40;;;25.40;58.80;;;;;;4395681;32;20472;-67
2023/06/12 09:00:33;;;;;;;1.12;0.73;;;25.40;58.80;;;;;;4397504;32;20113;-66
2023/06/12 09:03:00;;;;;;;0.30;0.30;;;25.30;59.30;;;;;;4401978;32;20678;-68
2023/06/12 09:05:29;;;;;;;0.22;0.22;;;25.10;58.70;;;;;;4401410;32;20101;-68
2023/06/12 09:07:57;;;;;;;0.60;0.60;;;25.10;59.00;;;;;;4402025;32;20407;-65
2023/06/12 09:10:23;;;;;;;0.35;0.30;;;25.00;59.60;;;;;;4387758;32;20328;-67
2023/06/12 09:12:53;;;;;;;0.28;0.28;;;25.10;58.70;;;;;;4389748;32;20093;-67
2023/06/12 09:15:20;;;;;;;0.43;0.43;;;25.20;59.20;;;;;;4392812;32;21010;-68
2023/06/12 09:17:47;;;;;;;0.80;0.73;;;25.40;59.60;;;;;;4390374;32;20100;-68
2023/06/12 09:20:27;;;;;;;0.47;0.47;;;25.60;59.40;;;;;;4408050;32;20086;-67
2023/06/12 09:22:53;;;;;;;0.77;0.60;;;25.80;58.00;;;;;;4401128;32;20436;-66
2023/06/12 09:25:20;;;;;;;0.82;0.70;;;25.80;58.50;;;;;;4396928;32;20220;-67
2023/06/12 09:27:46;;;;;;;0.30;0.30;;;26.00;58.20;;;;;;4420675;27;20970;-76
2023/06/12 09:30:13;;;;;;;0.50;0.43;;;26.00;57.70;;;;;;4392020;32;20439;-75
2023/06/12 09:32:43;;;;;;;1.10;0.65;;;26.10;58.40;;;;;;4390476;32;20156;-77
2023/06/12 09:35:10;;;;;;;0.40;0.40;;;25.90;58.50;;;;;;4385178;32;20097;-76
2023/06/12 09:37:38;;;;;;;0.52;0.40;;;25.80;58.70;;;;;;4393770;32;20163;-78
2023/06/12 09:40:13;;;;;;;0.68;0.52;;;25.60;59.40;;;;;;4395893;32;20796;-76
2023/06/12 09:42:39;;;;;;;0.20;0.20;;;25.60;59.60;;;;;;4383967;32;20452;-77
2023/06/12 09:45:15;;;;;;;0.30;0.30;;;25.70;58.30;;;;;;4388523;32;20158;-76
2023/06/12 09:47:45;;;;;;;0.30;0.30;;;25.80;58.90;;;;;;4368265;32;20796;-77
2023/06/12 09:50:12;;;;;;;2.58;1.37;;;26.00;58.40;;;;;;4384700;32;20132;-75
2023/06/12 09:52:40;;;;;;;2.60;0.88;;;26.00;58.60;;;;;;4378408;32;20481;-76
2023/06/12 09:55:07;;;;;;;1.50;0.73;;;26.00;58.10;;;;;;4379770;32;21105;-77
2023/06/12 09:57:35;;;;;;;0.37;0.30;;;26.30;59.00;;;;;;4387270;32;20154;-77
2023/06/12 10:00:07;;;;;;;5.45;0.90;;;26.20;59.70;;;;;;4388243;32;20196;-76
2023/06/12 10:02:35;;;;;;;0.40;0.40;;;25.90;58.90;;;;;;4392051;32;20089;-77
2023/06/12 10:05:05;;;;;;;2.05;1.17;;;25.60;61.00;;;;;;4384548;32;20364;-77
2023/06/12 10:07:40;;;;;;;0.30;0.30;;;25.40;59.90;;;;;;4394485;32;20116;-76
2023/06/12 10:10:07;;;;;;;0.77;0.37;;;25.30;60.40;;;;;;4383089;32;20596;-76
2023/06/12 10:12:34;;;;;;;0.32;0.32;;;25.10;60.30;;;;;;4385924;32;20098;-76
2023/06/12 10:15:03;;;;;;;0.13;0.13;;;25.20;61.60;;;;;;4391346;32;20102;-75
2023/06/12 10:17:30;;;;;;;0.37;0.37;;;25.30;62.60;;;;;;4382499;32;20150;-75
2023/06/12 10:19:57;;;;;;;0.30;0.30;;;25.40;63.00;;;;;;4382109;32;20097;-76
2023/06/12 10:22:23;;;;;;;0.68;0.60;;;25.80;62.70;;;;;;4380600;32;20104;-75
2023/06/12 10:24:50;;;;;;;1.20;1.10;;;26.10;63.40;;;;;;4389390;32;20362;-77
2023/06/12 10:27:18;;;;;;;0.65;0.65;;;26.40;64.00;;;;;;4388986;32;20548;-77
2023/06/12 10:29:43;;;;;;;0.30;0.30;;;26.80;64.40;;;;;;4386643;32;20066;-76
2023/06/12 10:32:14;;;;;;;0.88;0.62;;;26.80;64.20;;;;;;4398332;32;20161;-76
2023/06/12 10:34:41;;;;;;;1.35;0.60;;;26.50;64.50;;;;;;4401105;32;20609;-75
2023/06/12 10:37:28;;;;;;;0.20;0.20;;;26.30;65.40;;;;;;4398268;32;20579;-75
2023/06/12 10:40:16;;;;;;;3.10;1.17;;;26.40;64.90;;;;;;4384323;32;20626;-77
2023/06/12 10:42:48;;;;;;;0.32;0.32;;;26.90;64.40;;;;;;4402076;32;20220;-75
2023/06/12 10:45:24;;;;;;;0.22;0.22;;;27.40;62.10;;;;;;4377842;32;20501;-76
2023/06/12 10:48:08;;;;;;;0.85;0.57;;;27.50;59.80;;;;;;4396093;32;20216;-75
2023/06/12 10:50:37;;;;;;;0.22;0.22;;;27.50;61.30;;;;;;4379111;32;20311;-77
2023/06/12 10:53:08;;;;;;;0.43;0.40;;;27.20;60.80;;;;;;4390531;32;20500;-77
2023/06/12 10:55:35;;;;;;;0.55;0.52;;;27.40;62.20;;;;;;4376901;32;20098;-78
2023/06/12 10:58:03;;;;;;;0.30;0.30;;;27.40;61.50;;;;;;4375357;32;20614;-78
2023/06/12 11:00:32;;;;;;;0.20;0.20;;;27.00;61.50;;;;;;4384982;32;20088;-76
2023/06/12 11:03:02;;;;;;;0.20;0.20;;;27.00;61.30;;;;;;4398480;32;20227;-77
2023/06/12 11:05:29;;;;;;;0.32;0.32;;;27.20;60.10;;;;;;4386435;32;20615;-77
2023/06/12 11:07:58;;;;;;;0.30;0.30;;;26.90;59.80;;;;;;4393049;32;20057;-79
2023/06/12 11:10:24;;;;;;;0.32;0.32;;;26.60;61.40;;;;;;4390696;32;20155;-77
2023/06/12 11:12:51;;;;;;;1.48;0.62;;;26.60;62.70;;;;;;4389851;32;20101;-77
2023/06/12 11:15:17;;;;;;;1.27;1.05;;;26.70;62.10;;;;;;4392684;32;20102;-78
2023/06/12 11:17:43;;;;;;;0.57;0.45;;;26.40;61.40;;;;;;4389440;32;20173;-77
2023/06/12 11:20:10;;;;;;;0.30;0.30;;;26.30;62.20;;;;;;4391371;32;20090;-77
2023/06/12 11:22:36;;;;;;;0.60;0.55;;;26.30;62.00;;;;;;4395070;32;20093;-78
2023/06/12 11:25:03;;;;;;;0.82;0.60;;;26.50;61.60;;;;;;4385907;32;20830;-77
2023/06/12 11:27:30;;;;;;;0.20;0.20;;;26.60;61.10;;;;;;4388130;32;20182;-77
2023/06/12 11:29:55;;;;;;;0.30;0.30;;;26.80;61.20;;;;;;4390634;32;20112;-77
2023/06/12 11:32:22;;;;;;;0.52;0.40;;;27.20;61.30;;;;;;4395970;32;20074;-78
2023/06/12 11:34:51;;;;;;;0.47;0.47;;;27.30;59.50;;;;;;4392332;32;20140;-77
2023/06/12 11:37:20;;;;;;;1.17;0.52;;;27.80;59.20;;;;;;4391204;32;20078;-76
2023/06/12 11:39:46;;;;;;;1.75;0.37;;;27.80;58.40;;;;;;4391642;32;20649;-77
2023/06/12 11:42:13;;;;;;;0.60;0.57;;;27.50;59.90;;;;;;4387950;32;21565;-74
2023/06/12 11:44:39;;;;;;;0.30;0.22;;;27.50;60.10;;;;;;4381370;32;140231;-77
2023/06/12 11:47:07;;;;;;;0.22;0.22;;;28.10;58.50;;;;;;4394984;32;20105;-77
2023/06/12 11:49:35;;;;;;;0.20;0.20;;;28.50;58.80;;;;;;4391504;32;20131;-76
2023/06/12 11:52:00;;;;;;;0.20;0.20;;;29.00;56.00;;;;;;4390031;32;20526;-78
2023/06/12 11:54:26;;;;;;;0.45;0.30;;;28.90;57.10;;;;;;4398308;32;20078;-75
2023/06/12 11:56:52;;;;;;;0.20;0.20;;;29.50;56.20;;;;;;4391372;32;20545;-77
2023/06/12 11:59:18;;;;;;;0.75;0.62;;;30.00;55.80;;;;;;4396991;32;20073;-76
2023/06/12 12:01:48;;;;;;;0.43;0.43;;;30.10;55.60;;;;;;4403029;32;20057;-76
2023/06/12 12:04:17;;;;;;;0.30;0.30;;;30.00;55.10;;;;;;4399366;32;20537;-74
2023/06/12 12:06:50;;;;;;;0.20;0.20;;;29.30;56.90;;;;;;4397592;32;21056;-75
2023/06/12 12:09:22;;;;;;;0.17;0.15;;;29.10;56.60;;;;;;4399866;32;20697;-76
2023/06/12 12:11:47;;;;;;;0.20;0.20;;;29.10;56.90;;;;;;4400755;32;21223;-76
2023/06/12 12:14:13;;;;;;;0.10;0.10;;;28.90;56.20;;;;;;4396379;32;20208;-76
2023/06/12 12:16:42;;;;;;;0.50;0.50;;;28.30;57.70;;;;;;4396650;32;20148;-78
2023/06/12 12:19:17;;;;;;;0.20;0.20;;;28.00;57.50;;;;;;4403156;32;20070;-79
2023/06/12 12:21:44;;;;;;;0.00;0.00;;;27.80;57.90;;;;;;4404101;32;20077;-77
2023/06/12 12:24:10;;;;;;;0.35;0.35;;;27.60;58.30;;;;;;4405508;32;20403;-77
2023/06/12 12:26:41;;;;;;;0.20;0.20;;;27.80;58.70;;;;;;4403324;32;20126;-76
2023/06/12 12:29:07;;;;;;;0.55;0.30;;;27.80;58.70;;;;;;4402656;32;20082;-77
2023/06/12 12:31:34;;;;;;;0.52;0.47;;;27.90;58.00;;;;;;4396017;32;21480;-76
2023/06/12 12:34:00;;;;;;;0.90;0.57;;;27.60;57.30;;;;;;4395003;32;20693;-77
2023/06/12 12:36:25;;;;;;;0.52;0.35;;;27.40;57.90;;;;;;4391542;32;20150;-76
2023/06/12 12:38:51;;;;;;;3.47;1.23;;;28.30;57.60;;;;;;4399940;32;20220;-76
2023/06/12 12:41:17;;;;;;;0.20;0.20;;;29.60;56.10;;;;;;4401631;32;20073;-77
2023/06/12 12:43:42;;;;;;;0.82;0.40;;;30.20;55.00;;;;;;4403861;32;20082;-77
2023/06/12 12:46:08;;;;;;;0.20;0.20;;;30.80;54.30;;;;;;4403807;32;20432;-76